sensor_id;sensor_type;location;lat;lon;timestamp;P1;durP1;ratioP1;P2;durP2;ratioP2
27187;SDS011;14708;50.872;5.306;2023-05-29T00:01:13;4.10;;;3.00;;
27187;SDS011;14708;50.872;5.306;2023-05-29T00:03:38;4.88;;;3.50;;
27187;SDS011;14708;50.872;5.306;2023-05-29T00:06:04;5.03;;;3.47;;
27187;SDS011;14708;50.872;5.306;2023-05-29T00:08:31;5.00;;;3.63;;
27187;SDS011;14708;50.872;5.306;2023-05-29T00:10:57;4.45;;;2.97;;
27187;SDS011;14708;50.872;5.306;2023-05-29T00:13:23;4.45;;;3.25;;
27187;SDS011;14708;50.872;5.306;2023-05-29T00:15:48;4.05;;;3.58;;
27187;SDS011;14708;50.872;5.306;2023-05-29T00:18:14;4.40;;;3.42;;
27187;SDS011;14708;50.872;5.306;2023-05-29T00:20:39;4.80;;;3.30;;
27187;SDS011;14708;50.872;5.306;2023-05-29T00:23:05;5.05;;;3.60;;
27187;SDS011;14708;50.872;5.306;2023-05-29T00:25:31;4.75;;;3.35;;
27187;SDS011;14708;50.872;5.306;2023-05-29T00:27:57;3.50;;;3.20;;
27187;SDS011;14708;50.872;5.306;2023-05-29T00:30:23;5.13;;;3.35;;
27187;SDS011;14708;50.872;5.306;2023-05-29T00:32:50;4.43;;;3.47;;
27187;SDS011;14708;50.872;5.306;2023-05-29T00:35:17;4.45;;;3.20;;
27187;SDS011;14708;50.872;5.306;2023-05-29T00:37:42;4.22;;;3.20;;
27187;SDS011;14708;50.872;5.306;2023-05-29T00:40:08;4.95;;;3.40;;
27187;SDS011;14708;50.872;5.306;2023-05-29T00:42:35;3.97;;;3.22;;
27187;SDS011;14708;50.872;5.306;2023-05-29T00:45:02;4.05;;;3.50;;
27187;SDS011;14708;50.872;5.306;2023-05-29T00:47:28;3.70;;;2.88;;
27187;SDS011;14708;50.872;5.306;2023-05-29T00:49:55;3.88;;;3.28;;
27187;SDS011;14708;50.872;5.306;2023-05-29T00:52:22;4.68;;;3.38;;
27187;SDS011;14708;50.872;5.306;2023-05-29T00:54:49;6.60;;;3.13;;
27187;SDS011;14708;50.872;5.306;2023-05-29T00:57:16;4.90;;;3.17;;
27187;SDS011;14708;50.872;5.306;2023-05-29T00:59:42;3.42;;;3.00;;
27187;SDS011;14708;50.872;5.306;2023-05-29T01:02:10;4.37;;;3.03;;
27187;SDS011;14708;50.872;5.306;2023-05-29T01:04:36;4.10;;;3.10;;
27187;SDS011;14708;50.872;5.306;2023-05-29T01:07:03;5.32;;;3.38;;
27187;SDS011;14708;50.872;5.306;2023-05-29T01:09:29;4.47;;;3.38;;
27187;SDS011;14708;50.872;5.306;2023-05-29T01:12:02;5.47;;;3.42;;
27187;SDS011;14708;50.872;5.306;2023-05-29T01:17:44;5.20;;;3.72;;
27187;SDS011;14708;50.872;5.306;2023-05-29T01:28:46;4.32;;;3.13;;
27187;SDS011;14708;50.872;5.306;2023-05-29T01:31:14;3.97;;;3.45;;
27187;SDS011;14708;50.872;5.306;2023-05-29T01:33:51;3.38;;;3.03;;
27187;SDS011;14708;50.872;5.306;2023-05-29T01:36:18;4.00;;;3.15;;
27187;SDS011;14708;50.872;5.306;2023-05-29T01:38:44;4.38;;;3.38;;
27187;SDS011;14708;50.872;5.306;2023-05-29T01:41:10;4.05;;;3.20;;
27187;SDS011;14708;50.872;5.306;2023-05-29T01:43:36;3.13;;;2.53;;
27187;SDS011;14708;50.872;5.306;2023-05-29T01:46:03;5.10;;;3.38;;
27187;SDS011;14708;50.872;5.306;2023-05-29T01:48:28;4.13;;;3.22;;
27187;SDS011;14708;50.872;5.306;2023-05-29T01:50:55;3.35;;;2.85;;
27187;SDS011;14708;50.872;5.306;2023-05-29T01:53:22;4.80;;;3.20;;
27187;SDS011;14708;50.872;5.306;2023-05-29T01:55:48;4.57;;;3.15;;
27187;SDS011;14708;50.872;5.306;2023-05-29T01:58:15;3.17;;;2.88;;
27187;SDS011;14708;50.872;5.306;2023-05-29T02:00:42;3.45;;;3.03;;
27187;SDS011;14708;50.872;5.306;2023-05-29T02:03:08;3.95;;;3.53;;
27187;SDS011;14708;50.872;5.306;2023-05-29T02:05:33;4.20;;;3.22;;
27187;SDS011;14708;50.872;5.306;2023-05-29T02:07:59;4.03;;;3.15;;
27187;SDS011;14708;50.872;5.306;2023-05-29T02:10:25;4.03;;;3.20;;
27187;SDS011;14708;50.872;5.306;2023-05-29T02:12:51;4.13;;;3.00;;
27187;SDS011;14708;50.872;5.306;2023-05-29T02:15:16;4.25;;;3.33;;
27187;SDS011;14708;50.872;5.306;2023-05-29T02:17:42;4.50;;;3.10;;
27187;SDS011;14708;50.872;5.306;2023-05-29T02:20:09;3.55;;;3.17;;
27187;SDS011;14708;50.872;5.306;2023-05-29T02:22:36;3.35;;;3.00;;
27187;SDS011;14708;50.872;5.306;2023-05-29T02:25:01;3.15;;;2.85;;
27187;SDS011;14708;50.872;5.306;2023-05-29T02:27:27;3.63;;;3.20;;
27187;SDS011;14708;50.872;5.306;2023-05-29T02:29:52;4.05;;;2.90;;
27187;SDS011;14708;50.872;5.306;2023-05-29T02:32:18;4.50;;;3.00;;
27187;SDS011;14708;50.872;5.306;2023-05-29T02:34:44;3.50;;;3.20;;
27187;SDS011;14708;50.872;5.306;2023-05-29T02:37:10;4.25;;;2.97;;
27187;SDS011;14708;50.872;5.306;2023-05-29T02:39:36;4.03;;;3.05;;
27187;SDS011;14708;50.872;5.306;2023-05-29T02:42:01;3.20;;;2.70;;
27187;SDS011;14708;50.872;5.306;2023-05-29T02:44:27;3.78;;;3.30;;
27187;SDS011;14708;50.872;5.306;2023-05-29T02:46:52;3.50;;;3.03;;
27187;SDS011;14708;50.872;5.306;2023-05-29T02:49:18;4.35;;;3.50;;
27187;SDS011;14708;50.872;5.306;2023-05-29T02:51:44;4.10;;;3.08;;
27187;SDS011;14708;50.872;5.306;2023-05-29T02:54:09;3.65;;;2.80;;
27187;SDS011;14708;50.872;5.306;2023-05-29T02:56:37;3.45;;;2.80;;
27187;SDS011;14708;50.872;5.306;2023-05-29T02:59:03;3.22;;;2.92;;
27187;SDS011;14708;50.872;5.306;2023-05-29T03:01:29;3.67;;;2.92;;
27187;SDS011;14708;50.872;5.306;2023-05-29T03:03:54;3.10;;;2.58;;
27187;SDS011;14708;50.872;5.306;2023-05-29T03:06:21;3.50;;;2.70;;
27187;SDS011;14708;50.872;5.306;2023-05-29T03:08:47;3.63;;;2.80;;
27187;SDS011;14708;50.872;5.306;2023-05-29T03:11:13;2.90;;;2.67;;
27187;SDS011;14708;50.872;5.306;2023-05-29T03:13:40;3.10;;;2.58;;
27187;SDS011;14708;50.872;5.306;2023-05-29T03:16:05;3.58;;;2.70;;
27187;SDS011;14708;50.872;5.306;2023-05-29T03:18:33;3.22;;;2.92;;
27187;SDS011;14708;50.872;5.306;2023-05-29T03:20:59;3.13;;;2.83;;
27187;SDS011;14708;50.872;5.306;2023-05-29T03:23:24;3.90;;;2.95;;
27187;SDS011;14708;50.872;5.306;2023-05-29T03:25:50;2.53;;;2.30;;
27187;SDS011;14708;50.872;5.306;2023-05-29T03:28:16;3.75;;;2.78;;
27187;SDS011;14708;50.872;5.306;2023-05-29T03:30:41;2.85;;;2.55;;
27187;SDS011;14708;50.872;5.306;2023-05-29T03:33:07;3.05;;;2.65;;
27187;SDS011;14708;50.872;5.306;2023-05-29T03:35:32;2.85;;;2.65;;
27187;SDS011;14708;50.872;5.306;2023-05-29T03:37:58;3.58;;;3.05;;
27187;SDS011;14708;50.872;5.306;2023-05-29T03:40:24;3.13;;;2.80;;
27187;SDS011;14708;50.872;5.306;2023-05-29T03:42:50;2.97;;;2.58;;
27187;SDS011;14708;50.872;5.306;2023-05-29T03:45:16;3.53;;;3.10;;
27187;SDS011;14708;50.872;5.306;2023-05-29T03:47:41;4.03;;;3.45;;
27187;SDS011;14708;50.872;5.306;2023-05-29T03:50:07;3.90;;;2.83;;
27187;SDS011;14708;50.872;5.306;2023-05-29T03:52:33;3.60;;;2.85;;
27187;SDS011;14708;50.872;5.306;2023-05-29T03:54:59;2.80;;;2.60;;
27187;SDS011;14708;50.872;5.306;2023-05-29T03:57:24;3.40;;;2.83;;
27187;SDS011;14708;50.872;5.306;2023-05-29T03:59:51;2.97;;;2.50;;
27187;SDS011;14708;50.872;5.306;2023-05-29T04:02:16;3.20;;;2.80;;
27187;SDS011;14708;50.872;5.306;2023-05-29T04:04:42;3.00;;;2.70;;
27187;SDS011;14708;50.872;5.306;2023-05-29T04:07:08;3.03;;;2.72;;
27187;SDS011;14708;50.872;5.306;2023-05-29T04:09:34;3.45;;;2.80;;
27187;SDS011;14708;50.872;5.306;2023-05-29T04:11:59;2.63;;;2.30;;
27187;SDS011;14708;50.872;5.306;2023-05-29T04:14:27;4.03;;;3.10;;
27187;SDS011;14708;50.872;5.306;2023-05-29T04:16:53;3.20;;;2.65;;
27187;SDS011;14708;50.872;5.306;2023-05-29T04:19:18;2.75;;;2.40;;
27187;SDS011;14708;50.872;5.306;2023-05-29T04:21:45;4.43;;;2.90;;
27187;SDS011;14708;50.872;5.306;2023-05-29T04:24:12;3.20;;;2.70;;
27187;SDS011;14708;50.872;5.306;2023-05-29T04:26:39;3.30;;;2.35;;
27187;SDS011;14708;50.872;5.306;2023-05-29T04:29:06;3.70;;;2.88;;
27187;SDS011;14708;50.872;5.306;2023-05-29T04:31:32;2.90;;;2.63;;
27187;SDS011;14708;50.872;5.306;2023-05-29T04:33:58;3.22;;;2.72;;
27187;SDS011;14708;50.872;5.306;2023-05-29T04:36:25;3.00;;;2.70;;
27187;SDS011;14708;50.872;5.306;2023-05-29T04:38:52;2.92;;;2.60;;
27187;SDS011;14708;50.872;5.306;2023-05-29T04:41:18;2.88;;;2.20;;
27187;SDS011;14708;50.872;5.306;2023-05-29T04:43:44;4.03;;;3.20;;
27187;SDS011;14708;50.872;5.306;2023-05-29T04:46:10;4.25;;;2.78;;
27187;SDS011;14708;50.872;5.306;2023-05-29T04:48:40;5.75;;;3.15;;
27187;SDS011;14708;50.872;5.306;2023-05-29T04:51:06;5.60;;;2.60;;
27187;SDS011;14708;50.872;5.306;2023-05-29T04:53:32;5.68;;;2.70;;
27187;SDS011;14708;50.872;5.306;2023-05-29T04:55:57;4.05;;;2.58;;
27187;SDS011;14708;50.872;5.306;2023-05-29T04:58:25;3.92;;;2.70;;
27187;SDS011;14708;50.872;5.306;2023-05-29T05:00:51;4.63;;;2.35;;
27187;SDS011;14708;50.872;5.306;2023-05-29T05:03:16;3.50;;;2.42;;
27187;SDS011;14708;50.872;5.306;2023-05-29T05:05:42;2.60;;;2.33;;
27187;SDS011;14708;50.872;5.306;2023-05-29T05:08:08;2.90;;;2.47;;
27187;SDS011;14708;50.872;5.306;2023-05-29T05:10:36;2.58;;;2.38;;
27187;SDS011;14708;50.872;5.306;2023-05-29T05:13:02;3.70;;;2.55;;
27187;SDS011;14708;50.872;5.306;2023-05-29T05:15:28;4.30;;;2.45;;
27187;SDS011;14708;50.872;5.306;2023-05-29T05:17:53;5.22;;;2.33;;
27187;SDS011;14708;50.872;5.306;2023-05-29T05:20:19;3.00;;;2.35;;
27187;SDS011;14708;50.872;5.306;2023-05-29T05:22:45;2.92;;;2.30;;
27187;SDS011;14708;50.872;5.306;2023-05-29T05:25:10;3.78;;;2.35;;
27187;SDS011;14708;50.872;5.306;2023-05-29T05:27:36;3.13;;;2.45;;
27187;SDS011;14708;50.872;5.306;2023-05-29T05:30:03;8.20;;;2.92;;
27187;SDS011;14708;50.872;5.306;2023-05-29T05:32:28;3.75;;;2.10;;
27187;SDS011;14708;50.872;5.306;2023-05-29T05:34:54;3.75;;;2.15;;
27187;SDS011;14708;50.872;5.306;2023-05-29T05:37:20;2.65;;;2.28;;
27187;SDS011;14708;50.872;5.306;2023-05-29T05:39:48;3.60;;;2.90;;
27187;SDS011;14708;50.872;5.306;2023-05-29T05:42:14;4.13;;;2.25;;
27187;SDS011;14708;50.872;5.306;2023-05-29T05:44:40;3.65;;;2.78;;
27187;SDS011;14708;50.872;5.306;2023-05-29T05:47:06;5.32;;;2.70;;
27187;SDS011;14708;50.872;5.306;2023-05-29T05:49:31;4.75;;;2.70;;
27187;SDS011;14708;50.872;5.306;2023-05-29T05:51:57;15.63;;;4.80;;
27187;SDS011;14708;50.872;5.306;2023-05-29T05:54:22;12.43;;;4.10;;
27187;SDS011;14708;50.872;5.306;2023-05-29T05:56:48;18.55;;;6.22;;
27187;SDS011;14708;50.872;5.306;2023-05-29T05:59:14;12.27;;;4.47;;
27187;SDS011;14708;50.872;5.306;2023-05-29T06:01:39;13.30;;;5.03;;
27187;SDS011;14708;50.872;5.306;2023-05-29T06:04:06;12.40;;;5.18;;
27187;SDS011;14708;50.872;5.306;2023-05-29T06:06:32;16.42;;;5.97;;
27187;SDS011;14708;50.872;5.306;2023-05-29T06:08:57;15.68;;;5.63;;
27187;SDS011;14708;50.872;5.306;2023-05-29T06:11:23;15.95;;;5.38;;
27187;SDS011;14708;50.872;5.306;2023-05-29T06:13:50;13.75;;;5.45;;
27187;SDS011;14708;50.872;5.306;2023-05-29T06:16:17;16.70;;;5.35;;
27187;SDS011;14708;50.872;5.306;2023-05-29T06:18:43;14.55;;;4.93;;
27187;SDS011;14708;50.872;5.306;2023-05-29T06:21:09;14.70;;;4.68;;
27187;SDS011;14708;50.872;5.306;2023-05-29T06:23:36;13.10;;;5.20;;
27187;SDS011;14708;50.872;5.306;2023-05-29T06:26:02;13.68;;;4.35;;
27187;SDS011;14708;50.872;5.306;2023-05-29T06:28:28;14.45;;;3.92;;
27187;SDS011;14708;50.872;5.306;2023-05-29T06:30:55;15.52;;;4.15;;
27187;SDS011;14708;50.872;5.306;2023-05-29T06:33:20;11.25;;;4.50;;
27187;SDS011;14708;50.872;5.306;2023-05-29T06:35:47;13.07;;;3.88;;
27187;SDS011;14708;50.872;5.306;2023-05-29T06:38:15;13.70;;;5.57;;
27187;SDS011;14708;50.872;5.306;2023-05-29T06:40:41;14.10;;;3.63;;
27187;SDS011;14708;50.872;5.306;2023-05-29T06:43:07;11.00;;;4.28;;
27187;SDS011;14708;50.872;5.306;2023-05-29T06:45:34;10.60;;;4.28;;
27187;SDS011;14708;50.872;5.306;2023-05-29T06:48:00;12.45;;;4.20;;
27187;SDS011;14708;50.872;5.306;2023-05-29T06:50:25;10.50;;;4.50;;
27187;SDS011;14708;50.872;5.306;2023-05-29T06:52:51;10.02;;;3.70;;
27187;SDS011;14708;50.872;5.306;2023-05-29T06:55:16;9.75;;;3.78;;
27187;SDS011;14708;50.872;5.306;2023-05-29T06:57:42;11.70;;;3.70;;
27187;SDS011;14708;50.872;5.306;2023-05-29T07:00:08;15.05;;;4.38;;
27187;SDS011;14708;50.872;5.306;2023-05-29T07:02:36;12.55;;;4.32;;
27187;SDS011;14708;50.872;5.306;2023-05-29T07:05:02;14.23;;;4.20;;
27187;SDS011;14708;50.872;5.306;2023-05-29T07:07:28;12.25;;;4.38;;
27187;SDS011;14708;50.872;5.306;2023-05-29T07:09:54;8.93;;;3.28;;
27187;SDS011;14708;50.872;5.306;2023-05-29T07:12:21;9.65;;;3.78;;
27187;SDS011;14708;50.872;5.306;2023-05-29T07:14:47;14.32;;;3.83;;
27187;SDS011;14708;50.872;5.306;2023-05-29T07:17:13;12.35;;;4.28;;
27187;SDS011;14708;50.872;5.306;2023-05-29T07:19:39;12.43;;;3.92;;
27187;SDS011;14708;50.872;5.306;2023-05-29T07:22:05;12.52;;;3.30;;
27187;SDS011;14708;50.872;5.306;2023-05-29T07:24:31;14.57;;;3.83;;
27187;SDS011;14708;50.872;5.306;2023-05-29T07:26:56;12.85;;;4.15;;
27187;SDS011;14708;50.872;5.306;2023-05-29T07:29:22;13.20;;;3.83;;
27187;SDS011;14708;50.872;5.306;2023-05-29T07:31:49;12.63;;;3.30;;
27187;SDS011;14708;50.872;5.306;2023-05-29T07:34:15;14.02;;;3.83;;
27187;SDS011;14708;50.872;5.306;2023-05-29T07:37:03;13.18;;;3.58;;
27187;SDS011;14708;50.872;5.306;2023-05-29T07:39:28;13.82;;;4.05;;
27187;SDS011;14708;50.872;5.306;2023-05-29T07:41:58;14.57;;;3.40;;
27187;SDS011;14708;50.872;5.306;2023-05-29T07:44:26;20.27;;;6.00;;
27187;SDS011;14708;50.872;5.306;2023-05-29T07:46:51;32.53;;;7.57;;
27187;SDS011;14708;50.872;5.306;2023-05-29T07:49:17;27.25;;;7.07;;
27187;SDS011;14708;50.872;5.306;2023-05-29T07:51:44;25.98;;;5.70;;
27187;SDS011;14708;50.872;5.306;2023-05-29T07:54:10;27.45;;;5.43;;
27187;SDS011;14708;50.872;5.306;2023-05-29T07:56:36;21.48;;;4.80;;
27187;SDS011;14708;50.872;5.306;2023-05-29T07:59:02;17.00;;;4.43;;
27187;SDS011;14708;50.872;5.306;2023-05-29T08:01:28;20.70;;;4.72;;
27187;SDS011;14708;50.872;5.306;2023-05-29T08:03:54;22.38;;;5.85;;
27187;SDS011;14708;50.872;5.306;2023-05-29T08:06:20;17.60;;;5.05;;
27187;SDS011;14708;50.872;5.306;2023-05-29T08:08:46;16.75;;;4.65;;
27187;SDS011;14708;50.872;5.306;2023-05-29T08:11:12;14.45;;;4.10;;
27187;SDS011;14708;50.872;5.306;2023-05-29T08:13:38;16.27;;;3.85;;
27187;SDS011;14708;50.872;5.306;2023-05-29T08:16:03;17.05;;;4.32;;
27187;SDS011;14708;50.872;5.306;2023-05-29T08:18:30;10.27;;;3.33;;
27187;SDS011;14708;50.872;5.306;2023-05-29T08:20:56;10.82;;;3.83;;
27187;SDS011;14708;50.872;5.306;2023-05-29T08:23:22;7.35;;;3.22;;
27187;SDS011;14708;50.872;5.306;2023-05-29T08:25:48;12.63;;;3.65;;
27187;SDS011;14708;50.872;5.306;2023-05-29T08:28:16;11.20;;;3.63;;
27187;SDS011;14708;50.872;5.306;2023-05-29T08:30:42;12.50;;;3.63;;
27187;SDS011;14708;50.872;5.306;2023-05-29T08:33:07;8.77;;;2.83;;
27187;SDS011;14708;50.872;5.306;2023-05-29T08:35:33;12.63;;;3.90;;
27187;SDS011;14708;50.872;5.306;2023-05-29T08:37:59;7.47;;;2.90;;
27187;SDS011;14708;50.872;5.306;2023-05-29T08:40:25;10.18;;;3.20;;
27187;SDS011;14708;50.872;5.306;2023-05-29T08:43:02;8.48;;;2.90;;
27187;SDS011;14708;50.872;5.306;2023-05-29T08:45:33;12.77;;;3.60;;
27187;SDS011;14708;50.872;5.306;2023-05-29T08:48:00;9.27;;;3.40;;
27187;SDS011;14708;50.872;5.306;2023-05-29T08:50:27;9.38;;;3.40;;
27187;SDS011;14708;50.872;5.306;2023-05-29T08:52:52;9.50;;;3.17;;
27187;SDS011;14708;50.872;5.306;2023-05-29T08:55:18;14.80;;;4.13;;
27187;SDS011;14708;50.872;5.306;2023-05-29T08:57:45;14.05;;;3.53;;
27187;SDS011;14708;50.872;5.306;2023-05-29T09:00:11;13.73;;;4.30;;
27187;SDS011;14708;50.872;5.306;2023-05-29T09:02:39;10.85;;;3.45;;
27187;SDS011;14708;50.872;5.306;2023-05-29T09:05:05;13.50;;;4.22;;
27187;SDS011;14708;50.872;5.306;2023-05-29T09:07:31;12.60;;;3.58;;
27187;SDS011;14708;50.872;5.306;2023-05-29T09:09:57;10.93;;;3.08;;
27187;SDS011;14708;50.872;5.306;2023-05-29T09:12:24;9.25;;;3.88;;
27187;SDS011;14708;50.872;5.306;2023-05-29T09:14:50;10.63;;;3.17;;
27187;SDS011;14708;50.872;5.306;2023-05-29T09:17:15;12.63;;;3.90;;
27187;SDS011;14708;50.872;5.306;2023-05-29T09:19:41;10.75;;;3.47;;
27187;SDS011;14708;50.872;5.306;2023-05-29T09:22:08;7.38;;;2.92;;
27187;SDS011;14708;50.872;5.306;2023-05-29T09:24:36;11.15;;;3.25;;
27187;SDS011;14708;50.872;5.306;2023-05-29T09:27:03;9.95;;;2.97;;
27187;SDS011;14708;50.872;5.306;2023-05-29T09:29:32;7.55;;;2.85;;
27187;SDS011;14708;50.872;5.306;2023-05-29T09:31:59;9.95;;;3.38;;
27187;SDS011;14708;50.872;5.306;2023-05-29T09:34:26;9.65;;;3.42;;
27187;SDS011;14708;50.872;5.306;2023-05-29T09:36:52;12.20;;;3.50;;
27187;SDS011;14708;50.872;5.306;2023-05-29T09:39:18;15.55;;;3.60;;
27187;SDS011;14708;50.872;5.306;2023-05-29T09:41:45;8.55;;;2.92;;
27187;SDS011;14708;50.872;5.306;2023-05-29T09:44:16;10.10;;;3.38;;
27187;SDS011;14708;50.872;5.306;2023-05-29T09:46:42;8.77;;;3.33;;
27187;SDS011;14708;50.872;5.306;2023-05-29T09:49:08;9.98;;;3.10;;
27187;SDS011;14708;50.872;5.306;2023-05-29T09:51:36;9.18;;;3.10;;
27187;SDS011;14708;50.872;5.306;2023-05-29T09:54:17;10.82;;;3.22;;
27187;SDS011;14708;50.872;5.306;2023-05-29T09:56:44;8.55;;;2.88;;
27187;SDS011;14708;50.872;5.306;2023-05-29T09:59:10;8.25;;;3.15;;
27187;SDS011;14708;50.872;5.306;2023-05-29T10:01:41;10.45;;;3.42;;
27187;SDS011;14708;50.872;5.306;2023-05-29T10:04:09;10.85;;;3.17;;
27187;SDS011;14708;50.872;5.306;2023-05-29T10:06:41;10.57;;;2.95;;
27187;SDS011;14708;50.872;5.306;2023-05-29T10:09:12;8.43;;;3.22;;
27187;SDS011;14708;50.872;5.306;2023-05-29T10:11:43;12.05;;;3.28;;
27187;SDS011;14708;50.872;5.306;2023-05-29T10:14:14;11.52;;;3.40;;
27187;SDS011;14708;50.872;5.306;2023-05-29T10:16:45;8.20;;;2.78;;
27187;SDS011;14708;50.872;5.306;2023-05-29T10:19:13;11.10;;;2.90;;
27187;SDS011;14708;50.872;5.306;2023-05-29T10:21:42;10.48;;;3.78;;
27187;SDS011;14708;50.872;5.306;2023-05-29T10:24:09;10.02;;;3.38;;
27187;SDS011;14708;50.872;5.306;2023-05-29T10:26:37;12.45;;;3.40;;
27187;SDS011;14708;50.872;5.306;2023-05-29T10:29:08;6.75;;;2.67;;
27187;SDS011;14708;50.872;5.306;2023-05-29T10:34:50;9.38;;;3.13;;
27187;SDS011;14708;50.872;5.306;2023-05-29T10:40:12;9.38;;;3.47;;
27187;SDS011;14708;50.872;5.306;2023-05-29T10:45:04;10.65;;;2.88;;
27187;SDS011;14708;50.872;5.306;2023-05-29T10:47:30;15.45;;;3.47;;
27187;SDS011;14708;50.872;5.306;2023-05-29T10:49:59;8.10;;;3.10;;
27187;SDS011;14708;50.872;5.306;2023-05-29T10:52:25;10.90;;;2.88;;
27187;SDS011;14708;50.872;5.306;2023-05-29T10:54:52;11.18;;;3.00;;
27187;SDS011;14708;50.872;5.306;2023-05-29T10:57:23;11.40;;;3.25;;
27187;SDS011;14708;50.872;5.306;2023-05-29T10:59:59;9.00;;;3.60;;
27187;SDS011;14708;50.872;5.306;2023-05-29T11:02:31;10.55;;;2.85;;
27187;SDS011;14708;50.872;5.306;2023-05-29T11:05:17;9.75;;;3.25;;
27187;SDS011;14708;50.872;5.306;2023-05-29T11:07:59;9.73;;;3.20;;
27187;SDS011;14708;50.872;5.306;2023-05-29T11:13:24;12.10;;;2.75;;
27187;SDS011;14708;50.872;5.306;2023-05-29T11:18:45;13.27;;;3.28;;
27187;SDS011;14708;50.872;5.306;2023-05-29T11:23:52;11.02;;;3.38;;
27187;SDS011;14708;50.872;5.306;2023-05-29T11:26:19;7.82;;;3.22;;
27187;SDS011;14708;50.872;5.306;2023-05-29T11:28:47;13.90;;;3.33;;
27187;SDS011;14708;50.872;5.306;2023-05-29T11:31:13;7.05;;;3.17;;
27187;SDS011;14708;50.872;5.306;2023-05-29T11:33:41;8.55;;;2.50;;
27187;SDS011;14708;50.872;5.306;2023-05-29T11:36:16;10.15;;;3.13;;
27187;SDS011;14708;50.872;5.306;2023-05-29T11:38:44;7.63;;;2.70;;
27187;SDS011;14708;50.872;5.306;2023-05-29T11:41:10;8.27;;;2.50;;
27187;SDS011;14708;50.872;5.306;2023-05-29T11:43:36;7.82;;;2.63;;
27187;SDS011;14708;50.872;5.306;2023-05-29T11:46:02;9.32;;;2.90;;
27187;SDS011;14708;50.872;5.306;2023-05-29T11:48:27;7.32;;;2.60;;
27187;SDS011;14708;50.872;5.306;2023-05-29T11:50:53;8.82;;;2.85;;
27187;SDS011;14708;50.872;5.306;2023-05-29T11:53:19;7.18;;;2.45;;
27187;SDS011;14708;50.872;5.306;2023-05-29T11:55:44;8.13;;;2.60;;
27187;SDS011;14708;50.872;5.306;2023-05-29T11:58:10;8.35;;;2.85;;
27187;SDS011;14708;50.872;5.306;2023-05-29T12:00:36;8.48;;;2.60;;
27187;SDS011;14708;50.872;5.306;2023-05-29T12:03:04;6.72;;;2.50;;
27187;SDS011;14708;50.872;5.306;2023-05-29T12:05:31;11.38;;;3.20;;
27187;SDS011;14708;50.872;5.306;2023-05-29T12:08:08;10.13;;;3.03;;
27187;SDS011;14708;50.872;5.306;2023-05-29T12:10:35;6.35;;;2.58;;
27187;SDS011;14708;50.872;5.306;2023-05-29T12:13:00;8.07;;;2.92;;
27187;SDS011;14708;50.872;5.306;2023-05-29T12:15:26;7.00;;;2.80;;
27187;SDS011;14708;50.872;5.306;2023-05-29T12:17:52;12.80;;;2.80;;
27187;SDS011;14708;50.872;5.306;2023-05-29T12:20:19;8.32;;;2.58;;
27187;SDS011;14708;50.872;5.306;2023-05-29T12:22:47;5.97;;;2.50;;
27187;SDS011;14708;50.872;5.306;2023-05-29T12:25:14;7.93;;;2.95;;
27187;SDS011;14708;50.872;5.306;2023-05-29T12:27:42;7.38;;;2.85;;
27187;SDS011;14708;50.872;5.306;2023-05-29T12:30:12;9.90;;;3.30;;
27187;SDS011;14708;50.872;5.306;2023-05-29T12:32:42;12.82;;;3.00;;
27187;SDS011;14708;50.872;5.306;2023-05-29T12:35:12;8.10;;;2.40;;
27187;SDS011;14708;50.872;5.306;2023-05-29T12:37:45;7.95;;;2.88;;
27187;SDS011;14708;50.872;5.306;2023-05-29T12:40:22;9.00;;;3.33;;
27187;SDS011;14708;50.872;5.306;2023-05-29T12:42:49;12.48;;;3.50;;
27187;SDS011;14708;50.872;5.306;2023-05-29T12:45:19;8.23;;;3.22;;
27187;SDS011;14708;50.872;5.306;2023-05-29T12:47:50;8.82;;;2.70;;
27187;SDS011;14708;50.872;5.306;2023-05-29T12:50:27;8.95;;;3.65;;
27187;SDS011;14708;50.872;5.306;2023-05-29T12:53:13;11.23;;;2.80;;
27187;SDS011;14708;50.872;5.306;2023-05-29T12:55:40;7.35;;;2.80;;
27187;SDS011;14708;50.872;5.306;2023-05-29T12:58:08;10.40;;;2.40;;
27187;SDS011;14708;50.872;5.306;2023-05-29T13:00:36;10.13;;;2.85;;
27187;SDS011;14708;50.872;5.306;2023-05-29T13:03:06;5.97;;;2.28;;
27187;SDS011;14708;50.872;5.306;2023-05-29T13:05:32;8.57;;;3.33;;
27187;SDS011;14708;50.872;5.306;2023-05-29T13:07:59;9.05;;;2.63;;
27187;SDS011;14708;50.872;5.306;2023-05-29T13:10:25;9.98;;;2.90;;
27187;SDS011;14708;50.872;5.306;2023-05-29T13:12:52;6.90;;;2.40;;
27187;SDS011;14708;50.872;5.306;2023-05-29T13:15:23;8.00;;;3.22;;
27187;SDS011;14708;50.872;5.306;2023-05-29T13:17:50;10.13;;;3.22;;
27187;SDS011;14708;50.872;5.306;2023-05-29T13:20:16;10.43;;;3.42;;
27187;SDS011;14708;50.872;5.306;2023-05-29T13:22:43;10.23;;;2.90;;
27187;SDS011;14708;50.872;5.306;2023-05-29T13:25:10;8.52;;;3.28;;
27187;SDS011;14708;50.872;5.306;2023-05-29T13:27:37;8.27;;;2.92;;
27187;SDS011;14708;50.872;5.306;2023-05-29T13:30:07;9.93;;;2.70;;
27187;SDS011;14708;50.872;5.306;2023-05-29T13:32:34;8.98;;;3.15;;
27187;SDS011;14708;50.872;5.306;2023-05-29T13:34:59;9.63;;;3.20;;
27187;SDS011;14708;50.872;5.306;2023-05-29T13:37:26;11.10;;;3.15;;
27187;SDS011;14708;50.872;5.306;2023-05-29T13:39:52;11.52;;;3.60;;
27187;SDS011;14708;50.872;5.306;2023-05-29T13:42:19;7.97;;;2.78;;
27187;SDS011;14708;50.872;5.306;2023-05-29T13:44:45;10.13;;;3.00;;
27187;SDS011;14708;50.872;5.306;2023-05-29T13:47:11;7.28;;;3.20;;
27187;SDS011;14708;50.872;5.306;2023-05-29T13:49:37;14.10;;;3.30;;
27187;SDS011;14708;50.872;5.306;2023-05-29T13:52:03;7.53;;;3.05;;
27187;SDS011;14708;50.872;5.306;2023-05-29T13:54:29;12.70;;;3.05;;
27187;SDS011;14708;50.872;5.306;2023-05-29T13:56:56;13.48;;;3.08;;
27187;SDS011;14708;50.872;5.306;2023-05-29T13:59:23;11.80;;;3.63;;
27187;SDS011;14708;50.872;5.306;2023-05-29T14:01:49;8.13;;;3.00;;
27187;SDS011;14708;50.872;5.306;2023-05-29T14:04:15;10.75;;;3.20;;
27187;SDS011;14708;50.872;5.306;2023-05-29T14:06:40;9.30;;;3.15;;
27187;SDS011;14708;50.872;5.306;2023-05-29T14:09:06;9.35;;;3.22;;
27187;SDS011;14708;50.872;5.306;2023-05-29T14:11:35;10.70;;;3.00;;
27187;SDS011;14708;50.872;5.306;2023-05-29T14:14:02;4.53;;;2.50;;
27187;SDS011;14708;50.872;5.306;2023-05-29T14:16:28;11.90;;;4.40;;
27187;SDS011;14708;50.872;5.306;2023-05-29T14:18:54;13.50;;;4.55;;
27187;SDS011;14708;50.872;5.306;2023-05-29T14:21:20;11.85;;;4.30;;
27187;SDS011;14708;50.872;5.306;2023-05-29T14:23:46;13.10;;;3.38;;
27187;SDS011;14708;50.872;5.306;2023-05-29T14:26:11;17.05;;;4.22;;
27187;SDS011;14708;50.872;5.306;2023-05-29T14:28:37;7.25;;;3.05;;
27187;SDS011;14708;50.872;5.306;2023-05-29T14:31:04;9.93;;;3.53;;
27187;SDS011;14708;50.872;5.306;2023-05-29T14:33:30;9.60;;;3.78;;
27187;SDS011;14708;50.872;5.306;2023-05-29T14:35:56;11.43;;;3.25;;
27187;SDS011;14708;50.872;5.306;2023-05-29T14:38:21;11.55;;;3.67;;
27187;SDS011;14708;50.872;5.306;2023-05-29T14:40:47;9.05;;;2.83;;
27187;SDS011;14708;50.872;5.306;2023-05-29T14:43:13;11.07;;;3.05;;
27187;SDS011;14708;50.872;5.306;2023-05-29T14:45:39;14.15;;;3.90;;
27187;SDS011;14708;50.872;5.306;2023-05-29T14:48:04;11.52;;;3.00;;
27187;SDS011;14708;50.872;5.306;2023-05-29T14:50:30;12.15;;;3.35;;
27187;SDS011;14708;50.872;5.306;2023-05-29T14:52:55;8.82;;;2.72;;
27187;SDS011;14708;50.872;5.306;2023-05-29T14:55:21;11.02;;;3.38;;
27187;SDS011;14708;50.872;5.306;2023-05-29T14:57:47;12.77;;;3.95;;
27187;SDS011;14708;50.872;5.306;2023-05-29T15:00:12;8.52;;;2.97;;
27187;SDS011;14708;50.872;5.306;2023-05-29T15:02:39;8.02;;;2.40;;
27187;SDS011;14708;50.872;5.306;2023-05-29T15:05:05;8.85;;;3.38;;
27187;SDS011;14708;50.872;5.306;2023-05-29T15:07:31;8.38;;;2.80;;
27187;SDS011;14708;50.872;5.306;2023-05-29T15:09:59;9.43;;;3.10;;